KMEV/MEV METAR and TAF weather

Enter ICAO airport designator
Station Type Date Time Source
KMEV METAR 2021/01/27 13:55 UTC NOAA

KMEV 271355Z AUTO 17022G34KT 7SM UP FEW004 BKN031 OVC065 M00/M02 A2964 RMK AO2


Station Type Date Time Source
KMEV Decoded METAR 2021/01/27 13:55 UTC NOAA

Station name not available
Jan 27, 2021 - 08:55 AM EST / 2021.01.27 1355 UTC
Wind: from the S (170 degrees) at 25 MPH (22 KT) gusting to 39 MPH (34 KT):0
Visibility: 7 mile(s):0
Sky conditions: overcast
Weather: precipitation
Temperature: 32 F (0 C)
Windchill: 19 F (-7 C):1
Dew Point: 28 F (-2 C)
Relative Humidity: 86%
Pressure (altimeter): 29.64 in. Hg (1003 hPa)
ob: KMEV 271355Z AUTO 17022G34KT 7SM UP FEW004 BKN031 OVC065 M00/M02 A2964 RMK AO2
cycle: 14

Station Type Date Time Source
KMEV TAF 2021/01/27 12:36 UTC NOAA

TAF KMEV 271134Z 2712/2812 16020G30KT 1SM -SN BLSN OVC003 WS020/22050KT
FM271800 17014G24KT 3SM -SHSN BKN018 OVC028 WS020/22035KT
FM272200 16011KT 1/2SM SN OVC005
FM280700 16008KT 1/2SM SN SCT003 OVC005 WS020/19040KT

Example: see airport list